Time;durP1;ratioP1;P1;durP2;ratioP2;P2;SDS_P1;SDS_P2;PMS_P1;PMS_P2;Temp;Humidity;BMP_temperature;BMP_pressure;BME280_temperature;BME280_humidity;BME280_pressure;Samples;Min_cycle;Max_cycle;Signal;HPM_P1;HPM_P2
2023/05/21 00:00:47;;;;;;;7.37;4.87;;;;;;;;;;5033938;28;20465;-81
2023/05/21 00:03:14;;;;;;;6.63;4.63;;;;;;;;;;5020675;28;20431;-81
2023/05/21 00:05:43;;;;;;;11.73;4.60;;;;;;;;;;5031591;28;20522;-80
2023/05/21 00:08:10;;;;;;;11.40;4.87;;;;;;;;;;5037239;28;20468;-80
2023/05/21 00:10:37;;;;;;;4.57;3.53;;;;;;;;;;5033557;28;20505;-81
2023/05/21 00:13:04;;;;;;;10.53;5.50;;;;;;;;;;5035664;28;20466;-81
2023/05/21 00:15:31;;;;;;;7.60;4.20;;;;;;;;;;5031569;28;20473;-80
2023/05/21 00:17:58;;;;;;;8.13;4.37;;;;;;;;;;5033411;28;20808;-81
2023/05/21 00:20:24;;;;;;;5.03;3.43;;;;;;;;;;5027805;28;21013;-80
2023/05/21 00:22:50;;;;;;;5.83;4.40;;;;;;;;;;5038333;28;20812;-80
2023/05/21 00:25:17;;;;;;;10.73;5.77;;;;;;;;;;5035391;28;20465;-81
2023/05/21 00:27:43;;;;;;;4.90;4.20;;;;;;;;;;5031143;28;20472;-81
2023/05/21 00:30:10;;;;;;;6.73;4.37;;;;;;;;;;5035820;28;20480;-81
2023/05/21 00:32:38;;;;;;;8.20;4.53;;;;;;;;;;5016881;28;20445;-81
2023/05/21 00:35:05;;;;;;;6.10;3.37;;;;;;;;;;5028990;28;20492;-81
2023/05/21 00:37:33;;;;;;;8.60;3.67;;;;;;;;;;5032510;28;20484;-81
2023/05/21 00:40:00;;;;;;;7.97;4.10;;;;;;;;;;5014875;28;20869;-81
2023/05/21 00:42:29;;;;;;;6.20;3.83;;;;;;;;;;5033004;28;20939;-81
2023/05/21 00:44:55;;;;;;;11.93;4.80;;;;;;;;;;5034803;28;20499;-81
2023/05/21 00:47:22;;;;;;;7.77;4.20;;;;;;;;;;4998099;28;20469;-81
2023/05/21 00:49:52;;;;;;;6.80;3.67;;;;;;;;;;5031102;28;20488;-81
2023/05/21 00:52:19;;;;;;;7.30;4.30;;;;;;;;;;5034129;28;20445;-80
2023/05/21 00:54:46;;;;;;;8.90;4.43;;;;;;;;;;5027522;28;20465;-80
2023/05/21 00:57:12;;;;;;;7.30;4.60;;;;;;;;;;5025735;28;20442;-81
2023/05/21 00:59:39;;;;;;;7.00;4.80;;;;;;;;;;5032701;28;21028;-80
2023/05/21 01:02:08;;;;;;;9.43;4.30;;;;;;;;;;5014205;28;20423;-80
2023/05/21 01:04:35;;;;;;;9.53;4.00;;;;;;;;;;5034026;28;20997;-81
2023/05/21 01:07:02;;;;;;;6.13;4.00;;;;;;;;;;5035600;28;20468;-81
2023/05/21 01:09:29;;;;;;;9.37;4.70;;;;;;;;;;5026800;28;20480;-81
2023/05/21 01:11:55;;;;;;;7.63;5.07;;;;;;;;;;5014002;28;20485;-80
2023/05/21 01:14:23;;;;;;;10.40;4.10;;;;;;;;;;5035229;28;20477;-81
2023/05/21 01:16:51;;;;;;;7.33;4.20;;;;;;;;;;5031622;28;20909;-81
2023/05/21 01:19:18;;;;;;;6.23;4.37;;;;;;;;;;5029525;28;20469;-82
2023/05/21 01:21:45;;;;;;;8.80;4.63;;;;;;;;;;5033504;28;20437;-81
2023/05/21 01:24:13;;;;;;;6.60;4.70;;;;;;;;;;5001735;28;20994;-81
2023/05/21 01:26:41;;;;;;;5.43;3.33;;;;;;;;;;5029307;28;20457;-80
2023/05/21 01:29:11;;;;;;;4.67;4.23;;;;;;;;;;5035586;28;20548;-81
2023/05/21 01:31:44;;;;;;;5.60;4.20;;;;;;;;;;5029698;28;20465;-80
2023/05/21 01:34:11;;;;;;;7.63;4.57;;;;;;;;;;5033540;28;20480;-80
2023/05/21 01:36:41;;;;;;;7.40;3.80;;;;;;;;;;5035826;28;20453;-80
2023/05/21 01:39:09;;;;;;;10.23;4.00;;;;;;;;;;5028893;28;20867;-81
2023/05/21 01:41:40;;;;;;;7.73;4.00;;;;;;;;;;5013913;28;20433;-80
2023/05/21 01:44:07;;;;;;;9.10;4.40;;;;;;;;;;5035132;28;20476;-80
2023/05/21 01:46:35;;;;;;;6.70;3.60;;;;;;;;;;5033373;28;20825;-81
2023/05/21 01:49:02;;;;;;;5.27;3.40;;;;;;;;;;5032624;28;20986;-80
2023/05/21 01:51:28;;;;;;;9.03;4.33;;;;;;;;;;5010106;28;20496;-81
2023/05/21 01:53:55;;;;;;;8.90;4.70;;;;;;;;;;5015527;28;20490;-80
2023/05/21 01:56:24;;;;;;;10.80;4.60;;;;;;;;;;5030697;28;20452;-80
2023/05/21 01:58:52;;;;;;;4.07;3.67;;;;;;;;;;5032109;28;20473;-81
2023/05/21 02:01:20;;;;;;;7.20;4.00;;;;;;;;;;5035424;28;20445;-81
2023/05/21 02:03:46;;;;;;;7.50;5.30;;;;;;;;;;5027277;28;20460;-81
2023/05/21 02:06:13;;;;;;;4.93;4.30;;;;;;;;;;5032501;28;20452;-81
2023/05/21 02:08:39;;;;;;;5.80;3.87;;;;;;;;;;5034537;28;20986;-81
2023/05/21 02:11:06;;;;;;;9.13;4.20;;;;;;;;;;5012671;28;20538;-81
2023/05/21 02:13:32;;;;;;;9.37;3.97;;;;;;;;;;5032329;28;20460;-81
2023/05/21 02:16:01;;;;;;;6.97;3.00;;;;;;;;;;5031105;28;20485;-80
2023/05/21 02:18:28;;;;;;;6.33;3.40;;;;;;;;;;5027391;28;20481;-81
2023/05/21 02:20:54;;;;;;;5.33;4.23;;;;;;;;;;5013199;28;20501;-80
2023/05/21 02:23:21;;;;;;;6.00;3.67;;;;;;;;;;5024756;28;20472;-80
2023/05/21 02:25:47;;;;;;;7.33;4.13;;;;;;;;;;5031349;28;20484;-81
2023/05/21 02:28:14;;;;;;;7.20;4.00;;;;;;;;;;5010638;28;20483;-81
2023/05/21 02:30:41;;;;;;;8.90;4.30;;;;;;;;;;5033993;28;20499;-80
2023/05/21 02:33:12;;;;;;;6.27;3.50;;;;;;;;;;5034754;28;21521;-81
2023/05/21 02:35:40;;;;;;;4.30;3.57;;;;;;;;;;5027719;28;20473;-81
2023/05/21 02:38:08;;;;;;;6.57;3.93;;;;;;;;;;5030666;28;20541;-80
2023/05/21 02:40:34;;;;;;;4.60;3.77;;;;;;;;;;5029030;28;20460;-80
2023/05/21 02:43:00;;;;;;;7.10;3.27;;;;;;;;;;5022983;28;20448;-81
2023/05/21 02:45:28;;;;;;;6.20;3.33;;;;;;;;;;5031340;28;20469;-80
2023/05/21 02:47:54;;;;;;;4.00;3.40;;;;;;;;;;5031841;28;20468;-81
2023/05/21 02:50:22;;;;;;;6.00;3.00;;;;;;;;;;5027120;28;20481;-80
2023/05/21 02:52:48;;;;;;;8.37;3.23;;;;;;;;;;5026725;28;20809;-81
2023/05/21 02:55:15;;;;;;;6.07;3.93;;;;;;;;;;5031596;28;20481;-81
2023/05/21 02:57:41;;;;;;;6.53;4.00;;;;;;;;;;5032966;28;20522;-81
2023/05/21 03:00:09;;;;;;;6.37;3.60;;;;;;;;;;5027997;28;20492;-81
2023/05/21 03:02:35;;;;;;;9.20;3.70;;;;;;;;;;5032120;28;20934;-81
2023/05/21 03:05:02;;;;;;;7.30;4.13;;;;;;;;;;5028530;28;20468;-81
2023/05/21 03:07:30;;;;;;;5.40;3.83;;;;;;;;;;5033007;28;20561;-81
2023/05/21 03:09:56;;;;;;;7.80;4.20;;;;;;;;;;5030540;28;20469;-81
2023/05/21 03:12:23;;;;;;;5.43;3.60;;;;;;;;;;5020708;28;20522;-80
2023/05/21 03:14:50;;;;;;;8.43;3.77;;;;;;;;;;5026057;28;20472;-80
2023/05/21 03:17:16;;;;;;;6.97;3.13;;;;;;;;;;5036205;28;20488;-80
2023/05/21 03:19:43;;;;;;;5.77;3.60;;;;;;;;;;5031804;28;21007;-81
2023/05/21 03:22:11;;;;;;;9.80;4.10;;;;;;;;;;5032186;28;20939;-80
2023/05/21 03:24:40;;;;;;;6.67;4.10;;;;;;;;;;5033059;28;20465;-81
2023/05/21 03:27:06;;;;;;;6.40;3.70;;;;;;;;;;5031890;28;20552;-80
2023/05/21 03:29:33;;;;;;;6.30;3.50;;;;;;;;;;5032797;28;20465;-80
2023/05/21 03:32:00;;;;;;;10.53;4.90;;;;;;;;;;5029793;28;20480;-81
2023/05/21 03:34:27;;;;;;;9.83;4.80;;;;;;;;;;5029320;28;20464;-81
2023/05/21 03:36:53;;;;;;;11.10;5.07;;;;;;;;;;5034407;28;20560;-81
2023/05/21 03:39:20;;;;;;;12.10;4.97;;;;;;;;;;5028961;28;20487;-81
2023/05/21 03:41:47;;;;;;;5.30;3.83;;;;;;;;;;5031125;28;20912;-81
2023/05/21 03:44:15;;;;;;;5.47;3.60;;;;;;;;;;5023527;28;20511;-81
2023/05/21 03:46:44;;;;;;;11.60;4.47;;;;;;;;;;5006308;28;20463;-81
2023/05/21 03:49:10;;;;;;;6.03;4.23;;;;;;;;;;5025333;28;20468;-81
2023/05/21 03:51:37;;;;;;;8.63;4.47;;;;;;;;;;5027192;28;20488;-81
2023/05/21 03:54:03;;;;;;;6.23;4.80;;;;;;;;;;5009579;28;20545;-80
2023/05/21 03:56:29;;;;;;;7.20;4.50;;;;;;;;;;5038686;28;20450;-81
2023/05/21 03:58:57;;;;;;;7.57;3.97;;;;;;;;;;5035599;28;20452;-82
2023/05/21 04:01:24;;;;;;;9.20;4.30;;;;;;;;;;5011941;28;20437;-82
2023/05/21 04:03:50;;;;;;;4.63;3.50;;;;;;;;;;5024967;28;20511;-81
2023/05/21 04:06:17;;;;;;;6.07;4.50;;;;;;;;;;5031555;28;20448;-81
2023/05/21 04:08:44;;;;;;;5.77;3.90;;;;;;;;;;5034312;28;20567;-82
2023/05/21 04:11:10;;;;;;;7.33;4.47;;;;;;;;;;5034264;28;20477;-81
2023/05/21 04:13:38;;;;;;;10.47;4.90;;;;;;;;;;5029961;28;20445;-81
2023/05/21 04:16:07;;;;;;;9.70;4.90;;;;;;;;;;5035267;28;20473;-81
2023/05/21 04:18:34;;;;;;;6.93;4.20;;;;;;;;;;5032695;28;20464;-81
2023/05/21 04:21:01;;;;;;;9.07;4.37;;;;;;;;;;5034911;28;20479;-82
2023/05/21 04:23:27;;;;;;;8.53;4.90;;;;;;;;;;5038154;28;20461;-81
2023/05/21 04:25:54;;;;;;;6.73;4.27;;;;;;;;;;5024536;28;20854;-81
2023/05/21 04:28:20;;;;;;;7.27;4.20;;;;;;;;;;5035871;28;20472;-81
2023/05/21 04:30:47;;;;;;;6.27;4.40;;;;;;;;;;5033003;28;20472;-81
2023/05/21 04:33:16;;;;;;;6.20;4.53;;;;;;;;;;5031845;28;20457;-80
2023/05/21 04:35:43;;;;;;;8.23;4.40;;;;;;;;;;5030800;28;20902;-81
2023/05/21 04:38:09;;;;;;;9.93;4.70;;;;;;;;;;5034584;28;20464;-81
2023/05/21 04:40:36;;;;;;;9.33;4.70;;;;;;;;;;5014517;28;21013;-80
2023/05/21 04:43:03;;;;;;;11.10;4.30;;;;;;;;;;5031871;28;20444;-81
2023/05/21 04:45:29;;;;;;;11.17;4.93;;;;;;;;;;5032512;28;20489;-81
2023/05/21 04:47:59;;;;;;;6.60;4.30;;;;;;;;;;5013363;28;20982;-82
2023/05/21 04:50:29;;;;;;;11.93;4.90;;;;;;;;;;5036520;28;20544;-82
2023/05/21 04:52:57;;;;;;;9.83;3.93;;;;;;;;;;5029568;28;20556;-81
2023/05/21 04:55:23;;;;;;;5.57;4.63;;;;;;;;;;5032142;28;20994;-81
2023/05/21 04:57:50;;;;;;;7.93;4.47;;;;;;;;;;5018204;28;20465;-82
2023/05/21 05:00:17;;;;;;;7.27;4.70;;;;;;;;;;5033837;28;21002;-82
2023/05/21 05:02:43;;;;;;;8.10;4.80;;;;;;;;;;5033960;28;20458;-81
2023/05/21 05:05:11;;;;;;;5.67;4.30;;;;;;;;;;5034481;28;20846;-82
2023/05/21 05:07:39;;;;;;;8.90;5.50;;;;;;;;;;5023927;28;20465;-81
2023/05/21 05:10:06;;;;;;;10.43;4.80;;;;;;;;;;5034158;28;20553;-82
2023/05/21 05:12:32;;;;;;;7.40;4.40;;;;;;;;;;5035212;28;20480;-82
2023/05/21 05:14:59;;;;;;;9.10;4.77;;;;;;;;;;5030274;28;20472;-80
2023/05/21 05:17:26;;;;;;;11.60;4.67;;;;;;;;;;5030156;28;20461;-80
2023/05/21 05:19:53;;;;;;;6.00;4.80;;;;;;;;;;5015774;28;20466;-82
2023/05/21 05:22:19;;;;;;;14.80;6.70;;;;;;;;;;5014208;28;20484;-82
2023/05/21 05:24:47;;;;;;;6.83;4.73;;;;;;;;;;5029675;28;20480;-82
2023/05/21 05:27:13;;;;;;;6.83;5.00;;;;;;;;;;5034033;28;20842;-82
2023/05/21 05:29:39;;;;;;;8.50;5.23;;;;;;;;;;5035564;28;20472;-81
2023/05/21 05:32:06;;;;;;;5.40;4.90;;;;;;;;;;5033163;28;20839;-82
2023/05/21 05:34:33;;;;;;;7.37;4.93;;;;;;;;;;5024656;28;20472;-82
2023/05/21 05:36:59;;;;;;;10.70;5.20;;;;;;;;;;5035175;28;20469;-81
2023/05/21 05:39:25;;;;;;;8.60;5.93;;;;;;;;;;5029431;28;20472;-81
2023/05/21 05:41:53;;;;;;;12.00;5.77;;;;;;;;;;5030798;28;20461;-81
2023/05/21 05:44:19;;;;;;;8.93;5.30;;;;;;;;;;5022035;28;20469;-81
2023/05/21 05:46:46;;;;;;;7.60;4.63;;;;;;;;;;5031290;28;20459;-81
2023/05/21 05:49:12;;;;;;;5.63;5.03;;;;;;;;;;5040601;28;20472;-81
2023/05/21 05:51:39;;;;;;;7.20;6.10;;;;;;;;;;5012831;28;20478;-81
2023/05/21 05:54:05;;;;;;;6.43;5.40;;;;;;;;;;5029292;28;20487;-81
2023/05/21 05:56:31;;;;;;;8.07;5.93;;;;;;;;;;5025625;28;20974;-81
2023/05/21 05:59:00;;;;;;;11.40;5.87;;;;;;;;;;5032979;28;20922;-81
2023/05/21 06:01:26;;;;;;;9.70;6.77;;;;;;;;;;5033480;28;20444;-82
2023/05/21 06:03:56;;;;;;;9.00;5.30;;;;;;;;;;5034039;28;20456;-82
2023/05/21 06:06:22;;;;;;;8.47;4.80;;;;;;;;;;5028146;28;20453;-81
2023/05/21 06:08:48;;;;;;;13.37;6.17;;;;;;;;;;5033536;28;20484;-82
2023/05/21 06:11:17;;;;;;;7.83;5.70;;;;;;;;;;5029403;28;20464;-81
2023/05/21 06:13:44;;;;;;;8.33;6.63;;;;;;;;;;5031080;28;20487;-81
2023/05/21 06:16:11;;;;;;;6.90;5.20;;;;;;;;;;5008005;28;20483;-81
2023/05/21 06:18:38;;;;;;;10.27;6.80;;;;;;;;;;5030977;28;20500;-81
2023/05/21 06:21:04;;;;;;;9.80;5.93;;;;;;;;;;5028404;28;20461;-81
2023/05/21 06:23:32;;;;;;;7.73;6.53;;;;;;;;;;5031231;28;20441;-81
2023/05/21 06:25:59;;;;;;;9.73;6.67;;;;;;;;;;5025806;28;20507;-81
2023/05/21 06:28:27;;;;;;;9.07;6.47;;;;;;;;;;5031906;28;20993;-81
2023/05/21 06:30:53;;;;;;;8.77;6.97;;;;;;;;;;5024429;28;20476;-81
2023/05/21 06:33:22;;;;;;;8.33;5.60;;;;;;;;;;5029205;28;20859;-81
2023/05/21 06:35:48;;;;;;;11.47;6.87;;;;;;;;;;5027763;28;20473;-80
2023/05/21 06:38:14;;;;;;;8.67;6.53;;;;;;;;;;5013295;28;20469;-81
2023/05/21 06:40:40;;;;;;;8.07;6.00;;;;;;;;;;5032302;28;20844;-81
2023/05/21 06:43:07;;;;;;;15.23;7.40;;;;;;;;;;5030625;28;20946;-81
2023/05/21 06:45:33;;;;;;;8.40;6.60;;;;;;;;;;5033394;28;20849;-81
2023/05/21 06:48:00;;;;;;;10.57;7.53;;;;;;;;;;5030614;28;21008;-81
2023/05/21 06:50:27;;;;;;;13.30;7.70;;;;;;;;;;5012169;28;20466;-80
2023/05/21 06:52:54;;;;;;;10.97;6.70;;;;;;;;;;5012847;28;20480;-81
2023/05/21 06:55:20;;;;;;;12.93;6.93;;;;;;;;;;5011158;28;20856;-81
2023/05/21 06:57:47;;;;;;;10.23;7.00;;;;;;;;;;5010754;28;20484;-81
2023/05/21 07:00:14;;;;;;;7.83;6.37;;;;;;;;;;5029235;28;20468;-81
2023/05/21 07:02:40;;;;;;;8.90;7.10;;;;;;;;;;5030314;28;20431;-81
2023/05/21 07:05:07;;;;;;;13.97;7.30;;;;;;;;;;5031904;28;20477;-81
2023/05/21 07:07:35;;;;;;;12.83;7.10;;;;;;;;;;5027032;28;20488;-81
2023/05/21 07:10:02;;;;;;;9.90;7.93;;;;;;;;;;5031585;28;20956;-81
2023/05/21 07:12:28;;;;;;;8.23;7.10;;;;;;;;;;5033361;28;20455;-82
2023/05/21 07:14:55;;;;;;;9.20;7.77;;;;;;;;;;5020422;28;20472;-81
2023/05/21 07:17:21;;;;;;;12.27;8.93;;;;;;;;;;5028466;28;20526;-82
2023/05/21 07:19:47;;;;;;;10.23;7.67;;;;;;;;;;5022812;28;20458;-81
2023/05/21 07:22:14;;;;;;;9.30;8.23;;;;;;;;;;5014334;28;20456;-81
2023/05/21 07:24:42;;;;;;;14.63;8.60;;;;;;;;;;5027719;28;20457;-81
2023/05/21 07:27:10;;;;;;;11.83;8.73;;;;;;;;;;5027282;28;20488;-81
2023/05/21 07:29:36;;;;;;;11.97;8.60;;;;;;;;;;5008539;28;20465;-82
2023/05/21 07:32:03;;;;;;;15.83;10.47;;;;;;;;;;5032132;28;20485;-81
2023/05/21 07:34:30;;;;;;;15.97;9.30;;;;;;;;;;5031657;28;20473;-82
2023/05/21 07:36:56;;;;;;;17.10;10.03;;;;;;;;;;5039137;28;20474;-82
2023/05/21 07:39:22;;;;;;;22.10;9.80;;;;;;;;;;5038211;28;20462;-81
2023/05/21 07:41:50;;;;;;;14.00;8.40;;;;;;;;;;5024588;28;20440;-81
2023/05/21 07:44:17;;;;;;;11.73;9.43;;;;;;;;;;5037008;28;20988;-81
2023/05/21 07:46:43;;;;;;;14.60;11.07;;;;;;;;;;5034467;28;20821;-80
2023/05/21 07:49:15;;;;;;;15.40;11.07;;;;;;;;;;5019085;28;20867;-81
2023/05/21 07:51:42;;;;;;;14.60;11.40;;;;;;;;;;5032650;28;20424;-82
2023/05/21 07:54:08;;;;;;;17.50;12.70;;;;;;;;;;5019352;28;20484;-81
2023/05/21 07:56:35;;;;;;;18.23;10.87;;;;;;;;;;5019110;28;20427;-80
2023/05/21 07:59:02;;;;;;;17.63;11.60;;;;;;;;;;5034212;28;20456;-82
2023/05/21 08:01:29;;;;;;;13.27;9.97;;;;;;;;;;5038726;28;20423;-82
2023/05/21 08:03:55;;;;;;;13.47;10.10;;;;;;;;;;5006761;28;20443;-82
2023/05/21 08:06:23;;;;;;;14.37;10.77;;;;;;;;;;5023556;28;20476;-82
2023/05/21 08:08:49;;;;;;;16.17;10.17;;;;;;;;;;5036589;28;20511;-80
2023/05/21 08:11:15;;;;;;;12.60;10.63;;;;;;;;;;5028458;28;20935;-79
2023/05/21 08:13:42;;;;;;;18.23;11.30;;;;;;;;;;5014130;28;20456;-80
2023/05/21 08:16:10;;;;;;;15.03;11.60;;;;;;;;;;5036659;28;20453;-80
2023/05/21 08:18:36;;;;;;;17.70;12.03;;;;;;;;;;5033180;28;20491;-80
2023/05/21 08:21:03;;;;;;;18.17;12.87;;;;;;;;;;5017270;28;20472;-80
2023/05/21 08:23:29;;;;;;;15.93;12.40;;;;;;;;;;5034916;28;20432;-80
2023/05/21 08:25:56;;;;;;;18.03;12.57;;;;;;;;;;5027347;28;20565;-80
2023/05/21 08:28:22;;;;;;;19.27;12.90;;;;;;;;;;5025487;28;21092;-80
2023/05/21 08:30:49;;;;;;;17.60;11.90;;;;;;;;;;5027177;28;20456;-80
2023/05/21 08:33:17;;;;;;;22.70;14.40;;;;;;;;;;5023306;28;20821;-80
2023/05/21 08:35:43;;;;;;;16.37;12.90;;;;;;;;;;5036310;28;20439;-80
2023/05/21 08:38:09;;;;;;;16.23;13.40;;;;;;;;;;5037106;28;20476;-81
2023/05/21 08:40:36;;;;;;;17.10;12.50;;;;;;;;;;5036088;28;20549;-81
2023/05/21 08:43:02;;;;;;;13.63;11.90;;;;;;;;;;5037662;28;20424;-80
2023/05/21 08:45:36;;;;;;;16.47;12.07;;;;;;;;;;5037484;28;20439;-80
2023/05/21 08:48:02;;;;;;;15.80;12.73;;;;;;;;;;5037448;28;20546;-81
2023/05/21 08:50:31;;;;;;;19.43;14.13;;;;;;;;;;5036845;28;20495;-80
2023/05/21 08:52:57;;;;;;;14.70;10.97;;;;;;;;;;5036841;28;20480;-80
2023/05/21 08:55:25;;;;;;;18.63;13.10;;;;;;;;;;5035179;28;20821;-80
2023/05/21 08:57:53;;;;;;;17.97;13.60;;;;;;;;;;5033608;28;20473;-79
2023/05/21 09:00:20;;;;;;;19.60;14.33;;;;;;;;;;5015999;28;20473;-80
2023/05/21 09:02:47;;;;;;;16.40;13.40;;;;;;;;;;5037576;28;20449;-81
2023/05/21 09:05:14;;;;;;;25.53;15.00;;;;;;;;;;5014592;28;20479;-81
2023/05/21 09:07:56;;;;;;;18.97;13.87;;;;;;;;;;5034842;28;20472;-81
2023/05/21 09:10:24;;;;;;;18.37;14.97;;;;;;;;;;5036158;28;20843;-81
2023/05/21 09:12:50;;;;;;;17.77;14.17;;;;;;;;;;5035334;28;20990;-81
2023/05/21 09:15:17;;;;;;;21.43;15.90;;;;;;;;;;5034339;28;20461;-80
2023/05/21 09:17:46;;;;;;;24.10;17.03;;;;;;;;;;5034904;28;20473;-80
2023/05/21 09:20:14;;;;;;;18.37;15.40;;;;;;;;;;5035388;28;20481;-80
2023/05/21 09:22:41;;;;;;;21.70;16.70;;;;;;;;;;5036431;28;20476;-79
2023/05/21 09:25:11;;;;;;;21.33;16.07;;;;;;;;;;5035192;28;20473;-80
2023/05/21 09:27:37;;;;;;;22.73;15.77;;;;;;;;;;5028898;28;20480;-80
2023/05/21 09:30:06;;;;;;;29.17;17.90;;;;;;;;;;5036066;28;20476;-81
2023/05/21 09:32:32;;;;;;;20.00;15.90;;;;;;;;;;5035109;28;20472;-81
2023/05/21 09:35:05;;;;;;;22.40;16.40;;;;;;;;;;5035880;28;20988;-80
2023/05/21 09:37:36;;;;;;;19.80;15.13;;;;;;;;;;5030938;28;20539;-80
2023/05/21 09:40:05;;;;;;;19.27;16.43;;;;;;;;;;5028142;28;20478;-81
2023/05/21 09:42:33;;;;;;;20.30;15.30;;;;;;;;;;5033125;28;20441;-82
2023/05/21 09:44:59;;;;;;;20.50;15.60;;;;;;;;;;5033355;28;20476;-80
2023/05/21 09:47:27;;;;;;;17.27;14.90;;;;;;;;;;5030436;28;20564;-80
2023/05/21 09:49:57;;;;;;;19.33;15.63;;;;;;;;;;5012216;28;20475;-82
2023/05/21 09:52:26;;;;;;;21.87;15.67;;;;;;;;;;5031058;28;20461;-83
2023/05/21 09:54:53;;;;;;;17.03;14.40;;;;;;;;;;5029282;28;20472;-82
2023/05/21 09:57:23;;;;;;;23.33;15.43;;;;;;;;;;5035135;28;20526;-82
2023/05/21 09:59:51;;;;;;;20.43;14.90;;;;;;;;;;5034519;28;20555;-81
2023/05/21 10:02:18;;;;;;;21.03;15.80;;;;;;;;;;5033018;28;20456;-82
2023/05/21 10:04:47;;;;;;;20.20;14.50;;;;;;;;;;5029167;28;20469;-81
2023/05/21 10:07:14;;;;;;;21.50;16.63;;;;;;;;;;5027219;28;20476;-82
2023/05/21 10:09:41;;;;;;;22.90;16.67;;;;;;;;;;5032088;28;20480;-81
2023/05/21 10:12:09;;;;;;;25.03;15.73;;;;;;;;;;5027520;28;20461;-81
2023/05/21 10:14:36;;;;;;;23.90;16.70;;;;;;;;;;5034021;28;20507;-83
2023/05/21 10:17:04;;;;;;;23.40;15.73;;;;;;;;;;5030559;28;20528;-80
2023/05/21 10:19:32;;;;;;;20.80;16.33;;;;;;;;;;5024374;28;20500;-80
2023/05/21 10:22:00;;;;;;;20.77;16.50;;;;;;;;;;5034604;28;20958;-80
2023/05/21 10:24:27;;;;;;;23.10;16.73;;;;;;;;;;5028229;28;20544;-80
2023/05/21 10:26:53;;;;;;;22.40;16.87;;;;;;;;;;5023830;28;20470;-80
2023/05/21 10:29:20;;;;;;;23.30;16.60;;;;;;;;;;5027735;28;20869;-79
2023/05/21 10:31:48;;;;;;;20.57;15.93;;;;;;;;;;5028641;28;20444;-78
2023/05/21 10:34:16;;;;;;;23.43;18.17;;;;;;;;;;5031021;28;20552;-80
2023/05/21 10:36:43;;;;;;;18.97;15.77;;;;;;;;;;5023550;28;20970;-81
2023/05/21 10:39:12;;;;;;;21.23;17.33;;;;;;;;;;5033622;28;20452;-79
2023/05/21 10:41:43;;;;;;;23.47;16.93;;;;;;;;;;5032916;28;20461;-80
2023/05/21 10:44:17;;;;;;;20.20;16.47;;;;;;;;;;5032201;28;20833;-80
2023/05/21 10:46:54;;;;;;;22.50;16.87;;;;;;;;;;5031431;28;20539;-80
2023/05/21 10:49:35;;;;;;;18.43;16.07;;;;;;;;;;5033914;28;20575;-79
2023/05/21 10:52:04;;;;;;;21.30;16.83;;;;;;;;;;5029043;28;20962;-81
2023/05/21 10:54:53;;;;;;;23.13;17.20;;;;;;;;;;5030059;28;20473;-81
2023/05/21 10:57:27;;;;;;;24.43;15.63;;;;;;;;;;5031156;28;20484;-80
2023/05/21 10:59:54;;;;;;;19.83;16.00;;;;;;;;;;5028551;28;20469;-81
2023/05/21 11:02:21;;;;;;;23.10;17.20;;;;;;;;;;5034144;28;20461;-82
2023/05/21 11:04:57;;;;;;;21.67;16.37;;;;;;;;;;5034085;28;20469;-80
2023/05/21 11:07:43;;;;;;;21.80;18.90;;;;;;;;;;5035571;28;20486;-80
2023/05/21 11:10:29;;;;;;;22.97;17.23;;;;;;;;;;5033578;28;20488;-80
2023/05/21 11:13:05;;;;;;;19.17;16.90;;;;;;;;;;5033208;28;20461;-81
2023/05/21 11:15:52;;;;;;;19.80;16.40;;;;;;;;;;5036104;28;20561;-80
2023/05/21 11:18:19;;;;;;;18.27;15.57;;;;;;;;;;5035558;28;20476;-79
2023/05/21 11:20:51;;;;;;;20.20;16.30;;;;;;;;;;5034454;28;20834;-80
2023/05/21 11:23:18;;;;;;;18.83;16.13;;;;;;;;;;5034540;28;20476;-79
2023/05/21 11:25:44;;;;;;;18.47;16.17;;;;;;;;;;5036146;28;20472;-80
2023/05/21 11:28:12;;;;;;;24.63;16.70;;;;;;;;;;5037618;28;20487;-81
2023/05/21 11:30:38;;;;;;;22.03;17.67;;;;;;;;;;5027525;28;21009;-81
2023/05/21 11:33:17;;;;;;;21.47;16.73;;;;;;;;;;5033893;28;20448;-79
2023/05/21 11:35:57;;;;;;;22.33;16.67;;;;;;;;;;5031522;28;20997;-79
2023/05/21 11:38:23;;;;;;;24.17;18.63;;;;;;;;;;5034389;28;20574;-81
2023/05/21 11:40:52;;;;;;;21.50;17.07;;;;;;;;;;5036578;28;20473;-82
2023/05/21 11:43:18;;;;;;;18.93;15.90;;;;;;;;;;5032606;28;20472;-81
2023/05/21 11:45:48;;;;;;;17.50;15.40;;;;;;;;;;5029074;28;21002;-80
2023/05/21 11:48:15;;;;;;;18.00;16.10;;;;;;;;;;5034092;28;20461;-79
2023/05/21 11:50:42;;;;;;;21.77;17.70;;;;;;;;;;5035420;28;20849;-78
2023/05/21 11:53:10;;;;;;;19.67;16.43;;;;;;;;;;5030956;28;20542;-78
2023/05/21 11:55:38;;;;;;;32.03;17.30;;;;;;;;;;5027024;28;20481;-78
2023/05/21 11:58:07;;;;;;;17.47;15.73;;;;;;;;;;5034713;28;20469;-79
2023/05/21 12:00:38;;;;;;;20.50;17.43;;;;;;;;;;5030225;28;20481;-78
2023/05/21 12:03:05;;;;;;;21.43;16.57;;;;;;;;;;5016049;28;20452;-78
2023/05/21 12:05:43;;;;;;;18.43;16.63;;;;;;;;;;5030738;28;20472;-78
2023/05/21 12:08:11;;;;;;;22.00;18.40;;;;;;;;;;5028924;28;20484;-78
2023/05/21 12:10:41;;;;;;;17.43;15.67;;;;;;;;;;5035219;28;20862;-79
2023/05/21 12:13:07;;;;;;;19.90;16.07;;;;;;;;;;5034627;28;20496;-78
2023/05/21 12:15:33;;;;;;;21.90;17.87;;;;;;;;;;5028924;28;20489;-79
2023/05/21 12:18:00;;;;;;;18.37;16.40;;;;;;;;;;5013007;28;20469;-78
2023/05/21 12:20:27;;;;;;;16.90;15.10;;;;;;;;;;5020927;28;20477;-78
2023/05/21 12:22:54;;;;;;;22.67;16.00;;;;;;;;;;5015174;28;20959;-79
2023/05/21 12:25:21;;;;;;;17.40;15.20;;;;;;;;;;5035275;28;20524;-79
2023/05/21 12:27:49;;;;;;;16.87;14.87;;;;;;;;;;5033854;28;20476;-79
2023/05/21 12:30:16;;;;;;;16.33;14.70;;;;;;;;;;5033880;28;20472;-79
2023/05/21 12:32:43;;;;;;;17.77;15.97;;;;;;;;;;5031384;28;20463;-79
2023/05/21 12:35:09;;;;;;;18.50;16.30;;;;;;;;;;5030314;28;20476;-79
2023/05/21 12:37:36;;;;;;;22.30;16.43;;;;;;;;;;5035466;28;20502;-79
2023/05/21 12:40:03;;;;;;;19.37;17.27;;;;;;;;;;5033646;28;20822;-79
2023/05/21 12:42:33;;;;;;;17.53;15.73;;;;;;;;;;5031554;28;20461;-79
2023/05/21 12:45:00;;;;;;;20.00;15.70;;;;;;;;;;5012789;28;20465;-79
2023/05/21 12:47:27;;;;;;;18.70;16.47;;;;;;;;;;5030590;28;20485;-79
2023/05/21 12:49:55;;;;;;;18.47;15.80;;;;;;;;;;5033076;28;20476;-79
2023/05/21 12:52:22;;;;;;;17.97;16.07;;;;;;;;;;5027737;28;20491;-79
2023/05/21 12:54:49;;;;;;;22.33;16.73;;;;;;;;;;5033306;28;20473;-79
2023/05/21 12:57:16;;;;;;;19.43;15.30;;;;;;;;;;5034402;28;20477;-79
2023/05/21 12:59:52;;;;;;;18.37;15.53;;;;;;;;;;5033600;28;20475;-79
2023/05/21 13:02:20;;;;;;;16.40;14.70;;;;;;;;;;5032686;28;20939;-79
2023/05/21 13:04:47;;;;;;;17.40;15.43;;;;;;;;;;5031894;28;20479;-79
2023/05/21 13:07:14;;;;;;;19.00;16.07;;;;;;;;;;5023097;28;20484;-79
2023/05/21 13:09:41;;;;;;;17.47;15.67;;;;;;;;;;5034035;28;20484;-80
2023/05/21 13:12:09;;;;;;;15.47;13.77;;;;;;;;;;5037925;28;20464;-80
2023/05/21 13:14:35;;;;;;;18.30;14.70;;;;;;;;;;5034554;28;20483;-79
2023/05/21 13:17:03;;;;;;;17.67;15.87;;;;;;;;;;5029676;28;20480;-79
2023/05/21 13:19:29;;;;;;;17.07;15.30;;;;;;;;;;5033687;28;20483;-79
2023/05/21 13:21:55;;;;;;;18.70;14.00;;;;;;;;;;5026183;28;20843;-79
2023/05/21 13:24:21;;;;;;;19.57;14.73;;;;;;;;;;5034182;28;20461;-80
2023/05/21 13:26:48;;;;;;;16.60;14.83;;;;;;;;;;5030739;28;20457;-80
2023/05/21 13:29:16;;;;;;;17.10;14.57;;;;;;;;;;5031678;28;20468;-79
2023/05/21 13:31:42;;;;;;;17.87;15.27;;;;;;;;;;5031988;28;20461;-79
2023/05/21 13:34:11;;;;;;;17.13;15.50;;;;;;;;;;5032324;28;20485;-80
2023/05/21 13:36:38;;;;;;;17.20;15.37;;;;;;;;;;5028284;28;20484;-79
2023/05/21 13:39:04;;;;;;;18.93;14.43;;;;;;;;;;5031215;28;20461;-80
2023/05/21 13:41:31;;;;;;;18.77;15.07;;;;;;;;;;5033181;28;20544;-79
2023/05/21 13:43:57;;;;;;;20.13;16.63;;;;;;;;;;5027236;28;20461;-80
2023/05/21 13:46:24;;;;;;;16.20;14.50;;;;;;;;;;5031463;28;20468;-80
2023/05/21 13:48:50;;;;;;;17.40;15.60;;;;;;;;;;5030078;28;20488;-80
2023/05/21 13:51:18;;;;;;;15.87;14.27;;;;;;;;;;5017148;28;20476;-79
2023/05/21 13:53:45;;;;;;;17.17;15.20;;;;;;;;;;5031934;28;20465;-80
2023/05/21 13:56:12;;;;;;;17.67;15.87;;;;;;;;;;5034479;28;20459;-79
2023/05/21 13:58:39;;;;;;;16.97;15.17;;;;;;;;;;5034491;28;20481;-80
2023/05/21 14:01:06;;;;;;;15.30;13.80;;;;;;;;;;5029516;28;20473;-79
2023/05/21 14:03:32;;;;;;;17.00;15.17;;;;;;;;;;5035887;28;20464;-80
2023/05/21 14:05:58;;;;;;;17.10;15.30;;;;;;;;;;5022798;28;20470;-80
2023/05/21 14:08:28;;;;;;;18.70;15.90;;;;;;;;;;5030445;28;20488;-80
2023/05/21 14:10:55;;;;;;;17.53;15.73;;;;;;;;;;5028875;28;20477;-79
2023/05/21 14:13:21;;;;;;;20.43;16.27;;;;;;;;;;5031353;28;20820;-80
2023/05/21 14:15:47;;;;;;;16.80;15.20;;;;;;;;;;5010846;28;21021;-79
2023/05/21 14:18:14;;;;;;;16.60;14.73;;;;;;;;;;5030302;28;20479;-79
2023/05/21 14:20:40;;;;;;;17.90;14.63;;;;;;;;;;5028343;28;20465;-79
2023/05/21 14:23:08;;;;;;;17.40;15.60;;;;;;;;;;5032329;28;20560;-80
2023/05/21 14:25:35;;;;;;;17.23;15.47;;;;;;;;;;5007804;28;20479;-79
2023/05/21 14:28:02;;;;;;;23.73;15.20;;;;;;;;;;5031516;28;20846;-80
2023/05/21 14:30:29;;;;;;;17.70;15.87;;;;;;;;;;5028747;28;20469;-79